createdAt,value
2019-06-26T00:01:51.613Z,18.80
2019-06-26T00:04:22.179Z,17.83
2019-06-26T00:06:52.912Z,18.90
2019-06-26T00:09:23.343Z,17.13
2019-06-26T00:11:54.105Z,18.25
2019-06-26T00:14:24.698Z,18.37
2019-06-26T00:16:55.186Z,18.00
2019-06-26T00:19:25.790Z,17.77
2019-06-26T00:21:56.360Z,17.63
2019-06-26T00:24:26.844Z,18.03
2019-06-26T00:26:57.376Z,18.80
2019-06-26T00:29:28.042Z,19.43
2019-06-26T00:31:58.510Z,19.93
2019-06-26T00:34:29.042Z,18.73
2019-06-26T00:36:59.574Z,20.00
2019-06-26T00:39:30.181Z,20.40
2019-06-26T00:42:00.609Z,21.00
2019-06-26T00:44:32.229Z,21.80
2019-06-26T00:47:02.819Z,21.13
2019-06-26T00:49:33.447Z,20.90
2019-06-26T00:52:03.885Z,21.33
2019-06-26T00:54:34.457Z,18.83
2019-06-26T00:57:04.994Z,19.80
2019-06-26T00:59:37.316Z,19.43
2019-06-26T01:02:08.075Z,19.00
2019-06-26T01:04:41.212Z,19.50
2019-06-26T01:07:11.644Z,19.73
2019-06-26T01:09:42.196Z,19.17
2019-06-26T01:12:14.651Z,19.67
2019-06-26T01:14:44.892Z,19.23
2019-06-26T01:17:15.325Z,19.63
2019-06-26T01:19:45.920Z,19.43
2019-06-26T01:22:16.408Z,19.60
2019-06-26T01:24:46.883Z,19.93
2019-06-26T01:27:17.325Z,19.53
2019-06-26T01:29:47.868Z,20.30
2019-06-26T01:32:18.410Z,21.23
2019-06-26T01:34:49.109Z,20.97
2019-06-26T01:37:19.591Z,19.87
2019-06-26T01:39:50.188Z,20.40
2019-06-26T01:42:20.732Z,20.03
2019-06-26T01:44:51.299Z,20.77
2019-06-26T01:47:21.746Z,20.60
2019-06-26T01:49:52.298Z,19.83
2019-06-26T01:52:23.953Z,21.13
2019-06-26T01:54:54.458Z,19.73
2019-06-26T01:57:24.987Z,20.70
2019-06-26T01:59:55.709Z,21.03
2019-06-26T02:02:26.244Z,19.97
2019-06-26T02:04:56.814Z,20.67
2019-06-26T02:07:30.137Z,20.33
2019-06-26T02:10:00.707Z,21.17
2019-06-26T02:12:31.415Z,20.77
2019-06-26T02:15:02.140Z,20.67
2019-06-26T02:17:35.374Z,21.07
2019-06-26T02:20:06.655Z,21.50
2019-06-26T02:22:38.340Z,20.57
2019-06-26T02:25:09.444Z,20.47
2019-06-26T02:27:40.057Z,20.67
2019-06-26T02:30:10.992Z,20.67
2019-06-26T02:32:41.555Z,21.77
2019-06-26T02:35:13.772Z,21.57
2019-06-26T02:37:44.521Z,21.57
2019-06-26T02:40:15.549Z,21.30
2019-06-26T02:42:46.126Z,22.77
2019-06-26T02:45:20.748Z,23.80
2019-06-26T02:47:51.249Z,20.97
2019-06-26T02:50:21.832Z,22.03
2019-06-26T02:52:52.412Z,21.93
2019-06-26T02:55:22.941Z,22.33
2019-06-26T02:57:53.415Z,21.80
2019-06-26T03:00:23.930Z,21.10
2019-06-26T03:02:54.388Z,21.93
2019-06-26T03:05:24.897Z,21.13
2019-06-26T03:07:55.360Z,19.97
2019-06-26T03:10:25.821Z,21.17
2019-06-26T03:12:56.381Z,20.30
2019-06-26T03:15:26.887Z,19.53
2019-06-26T03:17:57.421Z,18.60
2019-06-26T03:20:30.897Z,18.42
2019-06-26T03:23:01.389Z,18.27
2019-06-26T03:25:33.871Z,19.60
2019-06-26T03:28:04.466Z,18.87
2019-06-26T03:30:34.910Z,18.92
2019-06-26T03:33:05.452Z,17.05
2019-06-26T03:35:36.028Z,18.23
2019-06-26T03:38:06.704Z,17.95
2019-06-26T03:40:37.131Z,18.10
2019-06-26T03:43:08.021Z,17.87
2019-06-26T03:45:39.473Z,18.57
2019-06-26T03:48:10.090Z,17.48
2019-06-26T03:50:40.710Z,17.75
2019-06-26T03:53:11.245Z,17.95
2019-06-26T03:55:42.487Z,16.95
2019-06-26T03:58:13.020Z,17.15
2019-06-26T04:00:44.795Z,17.90
2019-06-26T04:03:15.420Z,17.35
2019-06-26T04:05:46.693Z,17.55
2019-06-26T04:08:17.267Z,16.37
2019-06-26T04:10:47.877Z,20.65
2019-06-26T04:13:18.338Z,27.55
2019-06-26T04:15:50.933Z,30.82
2019-06-26T04:18:20.971Z,27.82
2019-06-26T04:20:51.485Z,22.00
2019-06-26T04:23:22.287Z,20.43
2019-06-26T04:25:52.757Z,19.07
2019-06-26T04:28:23.402Z,21.80
2019-06-26T04:30:55.361Z,23.38
2019-06-26T04:33:25.991Z,23.83
2019-06-26T04:35:56.449Z,23.18
2019-06-26T04:38:27.038Z,21.80
2019-06-26T04:40:57.602Z,19.12
2019-06-26T04:43:29.388Z,17.15
2019-06-26T04:45:59.895Z,16.57
2019-06-26T04:48:30.452Z,16.27
2019-06-26T04:51:01.076Z,15.88
2019-06-26T04:53:31.600Z,15.63
2019-06-26T04:56:02.130Z,15.55
2019-06-26T04:58:32.686Z,15.28
2019-06-26T05:01:03.234Z,14.98
2019-06-26T05:03:33.755Z,14.78
2019-06-26T05:06:04.320Z,15.40
2019-06-26T05:08:34.847Z,15.60
2019-06-26T05:11:05.675Z,14.53
2019-06-26T05:13:36.332Z,14.43
2019-06-26T05:16:15.035Z,14.38
2019-06-26T05:18:39.019Z,14.40
2019-06-26T05:21:09.762Z,14.58
2019-06-26T05:23:40.230Z,13.90
2019-06-26T05:26:10.727Z,14.25
2019-06-26T05:28:41.453Z,13.80
2019-06-26T05:31:12.035Z,12.80
2019-06-26T05:33:42.649Z,13.20
2019-06-26T05:36:13.157Z,13.25
2019-06-26T05:38:43.921Z,13.25
2019-06-26T05:41:15.861Z,12.95
2019-06-26T05:43:46.431Z,13.48
2019-06-26T05:46:30.169Z,14.35
2019-06-26T05:48:49.159Z,12.63
2019-06-26T05:51:19.614Z,12.93
2019-06-26T05:53:50.194Z,12.25
2019-06-26T05:56:20.695Z,13.68
2019-06-26T05:58:52.328Z,12.53
2019-06-26T06:01:24.013Z,15.50
2019-06-26T06:03:54.542Z,13.00
2019-06-26T06:06:37.513Z,13.30
2019-06-26T06:08:57.227Z,12.20
2019-06-26T06:11:27.743Z,12.05
2019-06-26T06:13:58.279Z,12.07
2019-06-26T06:16:28.775Z,11.80
2019-06-26T06:19:01.267Z,12.00
2019-06-26T06:21:31.924Z,12.30
2019-06-26T06:24:03.462Z,11.90
2019-06-26T06:26:33.963Z,11.80
2019-06-26T06:29:05.276Z,11.43
2019-06-26T06:31:35.743Z,12.15
2019-06-26T06:34:06.211Z,11.85
2019-06-26T06:36:36.757Z,11.38
2019-06-26T06:39:07.580Z,11.83
2019-06-26T06:41:38.095Z,11.45
2019-06-26T06:44:08.595Z,11.33
2019-06-26T06:46:39.156Z,11.60
2019-06-26T06:49:09.730Z,10.60
2019-06-26T06:51:40.318Z,11.15
2019-06-26T06:54:10.855Z,10.63
2019-06-26T06:56:41.320Z,10.60
2019-06-26T06:59:11.861Z,11.03
2019-06-26T07:01:42.372Z,10.68
2019-06-26T07:04:12.950Z,10.60
2019-06-26T07:06:45.068Z,9.78
2019-06-26T07:09:15.580Z,10.45
2019-06-26T07:11:46.061Z,9.53
2019-06-26T07:14:16.633Z,9.73
2019-06-26T07:16:47.180Z,9.48
2019-06-26T07:19:17.849Z,9.18
2019-06-26T07:21:48.376Z,9.38
2019-06-26T07:24:18.984Z,9.40
2019-06-26T07:26:50.559Z,8.05
2019-06-26T07:29:21.049Z,9.58
2019-06-26T07:31:51.524Z,9.20
2019-06-26T07:34:22.333Z,9.08
2019-06-26T07:36:52.834Z,8.25
2019-06-26T07:39:23.436Z,8.30
2019-06-26T07:41:54.014Z,8.23
2019-06-26T07:44:24.564Z,8.25
2019-06-26T07:46:56.100Z,8.88
2019-06-26T07:49:26.502Z,8.43
2019-06-26T07:51:57.089Z,9.40
2019-06-26T07:54:27.611Z,9.03
2019-06-26T07:56:58.153Z,8.73
2019-06-26T07:59:28.874Z,10.20
2019-06-26T08:01:59.368Z,9.88
2019-06-26T08:04:29.905Z,9.38
2019-06-26T08:07:00.470Z,9.55
2019-06-26T08:09:30.972Z,9.45
2019-06-26T08:12:01.410Z,10.45
2019-06-26T08:14:33.026Z,10.05
2019-06-26T08:17:03.504Z,10.78
2019-06-26T08:19:34.046Z,9.40
2019-06-26T08:22:04.528Z,10.58
2019-06-26T08:24:34.993Z,9.28
2019-06-26T08:27:12.668Z,10.23
2019-06-26T08:29:41.390Z,11.48
2019-06-26T08:32:11.877Z,9.48
2019-06-26T08:34:42.481Z,10.15
2019-06-26T08:37:12.917Z,10.68
2019-06-26T08:39:43.404Z,9.98
2019-06-26T08:42:13.949Z,10.23
2019-06-26T08:44:44.431Z,10.50
2019-06-26T08:47:14.909Z,9.50
2019-06-26T08:49:45.589Z,9.15
2019-06-26T08:52:17.095Z,9.35
2019-06-26T08:54:47.614Z,8.98
2019-06-26T08:57:18.195Z,8.83
2019-06-26T08:59:48.666Z,9.33
2019-06-26T09:02:19.237Z,9.68
2019-06-26T09:04:49.780Z,9.58
2019-06-26T09:07:20.268Z,9.00
2019-06-26T09:09:50.753Z,9.70
2019-06-26T09:12:22.493Z,9.00
2019-06-26T09:14:52.924Z,9.45
2019-06-26T09:17:23.403Z,9.58
2019-06-26T09:19:53.878Z,10.05
2019-06-26T09:22:24.390Z,9.80
2019-06-26T09:24:54.908Z,10.10
2019-06-26T09:27:25.374Z,8.93
2019-06-26T09:29:55.820Z,9.13
2019-06-26T09:32:26.383Z,9.28
2019-06-26T09:34:56.907Z,8.38
2019-06-26T09:37:27.496Z,9.10
2019-06-26T09:39:57.990Z,9.80
2019-06-26T09:42:28.431Z,8.45
2019-06-26T09:44:58.954Z,8.50
2019-06-26T09:47:31.195Z,8.55
2019-06-26T09:50:01.960Z,7.35
2019-06-26T09:52:33.566Z,8.05
2019-06-26T09:55:04.333Z,7.85
2019-06-26T09:57:34.851Z,7.53
2019-06-26T10:00:06.995Z,8.58
2019-06-26T10:02:38.789Z,8.50
2019-06-26T10:05:09.766Z,8.33
2019-06-26T10:07:40.287Z,8.48
2019-06-26T10:10:11.587Z,8.60
2019-06-26T10:12:42.123Z,7.78
2019-06-26T10:15:13.105Z,8.18
2019-06-26T10:17:43.596Z,8.40
2019-06-26T10:20:14.495Z,7.53
2019-06-26T10:22:45.073Z,6.75
2019-06-26T10:25:16.951Z,6.67
2019-06-26T10:27:47.503Z,6.97
2019-06-26T10:30:18.333Z,6.90
2019-06-26T10:32:48.817Z,6.17
2019-06-26T10:35:19.762Z,6.10
2019-06-26T10:37:50.460Z,5.97
2019-06-26T10:40:21.366Z,6.00
2019-06-26T10:42:51.949Z,5.85
2019-06-26T10:45:22.574Z,5.72
2019-06-26T10:47:53.170Z,5.60
2019-06-26T10:50:23.626Z,5.50
2019-06-26T10:52:54.122Z,6.15
2019-06-26T10:55:24.586Z,6.65
2019-06-26T10:57:55.073Z,7.00
2019-06-26T11:00:27.317Z,6.78
2019-06-26T11:02:57.810Z,7.05
2019-06-26T11:05:28.273Z,6.87
2019-06-26T11:07:58.759Z,6.72
2019-06-26T11:10:29.353Z,6.72
2019-06-26T11:12:59.863Z,6.83
2019-06-26T11:15:30.366Z,6.80
2019-06-26T11:18:00.809Z,7.28
2019-06-26T11:20:31.338Z,7.40
2019-06-26T11:23:02.027Z,6.47
2019-06-26T11:25:32.486Z,7.00
2019-06-26T11:28:03.030Z,6.95
2019-06-26T11:30:33.526Z,6.50
2019-06-26T11:33:04.091Z,6.35
2019-06-26T11:35:34.612Z,6.53
2019-06-26T11:38:05.228Z,6.62
2019-06-26T11:40:35.648Z,6.65
2019-06-26T11:43:07.070Z,7.20
2019-06-26T11:45:37.544Z,7.55
2019-06-26T11:48:09.854Z,6.85
2019-06-26T11:50:40.506Z,6.90
2019-06-26T11:53:23.737Z,6.15
2019-06-26T11:55:56.774Z,5.60
2019-06-26T11:58:32.094Z,6.90
2019-06-26T12:01:05.746Z,7.05
2019-06-26T12:03:36.516Z,6.67
2019-06-26T12:06:18.339Z,6.50
2019-06-26T12:08:40.476Z,6.80
2019-06-26T12:11:11.147Z,6.87
2019-06-26T12:13:41.850Z,7.12
2019-06-26T12:16:13.059Z,6.33
2019-06-26T12:18:43.996Z,6.60
2019-06-26T12:21:15.280Z,6.55
2019-06-26T12:23:46.200Z,6.80
2019-06-26T12:26:16.865Z,6.87
2019-06-26T12:28:47.466Z,7.22
2019-06-26T12:31:18.271Z,6.78
2019-06-26T12:33:48.746Z,6.83
2019-06-26T12:36:19.404Z,6.10
2019-06-26T12:38:49.945Z,7.08
2019-06-26T12:41:20.674Z,6.90
2019-06-26T12:43:51.212Z,6.33
2019-06-26T12:46:21.826Z,5.58
2019-06-26T12:48:52.437Z,6.05
2019-06-26T12:51:22.940Z,6.50
2019-06-26T12:53:53.401Z,6.65
2019-06-26T12:56:23.882Z,7.53
2019-06-26T12:58:54.396Z,7.25
2019-06-26T13:01:25.269Z,6.95
2019-06-26T13:03:55.921Z,6.42
2019-06-26T13:06:26.356Z,6.95
2019-06-26T13:08:56.915Z,6.53
2019-06-26T13:11:27.767Z,7.40
2019-06-26T13:14:02.338Z,7.08
2019-06-26T13:16:30.601Z,6.90
2019-06-26T13:19:01.140Z,6.70
2019-06-26T13:21:31.850Z,6.53
2019-06-26T13:24:02.754Z,6.35
2019-06-26T13:26:33.642Z,7.05
2019-06-26T13:29:04.363Z,6.92
2019-06-26T13:31:34.883Z,7.72
2019-06-26T13:34:06.464Z,7.35
2019-06-26T13:36:36.981Z,7.80
2019-06-26T13:39:07.820Z,7.00
2019-06-26T13:41:40.290Z,6.97
2019-06-26T13:44:12.190Z,7.30
2019-06-26T13:46:42.669Z,6.92
2019-06-26T13:49:16.517Z,7.47
2019-06-26T13:51:46.425Z,6.80
2019-06-26T13:54:17.100Z,6.83
2019-06-26T13:56:47.516Z,6.78
2019-06-26T13:59:18.081Z,7.05
2019-06-26T14:01:48.545Z,7.17
2019-06-26T14:04:19.110Z,7.50
2019-06-26T14:06:49.796Z,8.25
2019-06-26T14:09:20.373Z,7.70
2019-06-26T14:11:50.814Z,7.72
2019-06-26T14:14:22.305Z,7.58
2019-06-26T14:16:53.501Z,7.60
2019-06-26T14:19:26.758Z,7.37
2019-06-26T14:21:57.071Z,8.20
2019-06-26T14:24:27.522Z,8.15
2019-06-26T14:26:59.074Z,8.00
2019-06-26T14:29:29.601Z,7.70
2019-06-26T14:32:00.179Z,8.75
2019-06-26T14:34:31.434Z,8.30
2019-06-26T14:37:02.091Z,9.00
2019-06-26T14:39:32.466Z,8.08
2019-06-26T14:42:02.902Z,8.50
2019-06-26T14:44:33.425Z,7.80
2019-06-26T14:47:03.987Z,7.92
2019-06-26T14:49:34.470Z,8.13
2019-06-26T14:52:05.066Z,7.90
2019-06-26T14:54:35.563Z,8.00
2019-06-26T14:57:06.101Z,7.62
2019-06-26T14:59:36.629Z,7.22
2019-06-26T15:02:07.119Z,8.50
2019-06-26T15:04:37.685Z,7.85
2019-06-26T15:07:08.179Z,7.37
2019-06-26T15:09:38.658Z,7.83
2019-06-26T15:12:10.086Z,7.50
2019-06-26T15:14:40.601Z,7.90
2019-06-26T15:17:11.014Z,7.78
2019-06-26T15:19:41.486Z,8.05
2019-06-26T15:22:11.911Z,7.60
2019-06-26T15:24:42.381Z,7.97
2019-06-26T15:27:12.803Z,7.60
2019-06-26T15:29:43.321Z,8.43
2019-06-26T15:32:13.842Z,8.25
2019-06-26T15:34:44.500Z,7.75
2019-06-26T15:37:15.019Z,7.87
2019-06-26T15:39:45.504Z,8.10
2019-06-26T15:42:15.969Z,8.20
2019-06-26T15:44:46.541Z,8.10
2019-06-26T15:47:17.104Z,7.40
2019-06-26T15:49:47.623Z,8.03
2019-06-26T15:52:18.099Z,7.50
2019-06-26T15:54:48.619Z,8.00
2019-06-26T15:57:19.165Z,7.42
2019-06-26T15:59:49.665Z,8.08
2019-06-26T16:02:20.220Z,7.47
2019-06-26T16:04:51.073Z,7.75
2019-06-26T16:07:21.525Z,7.83
2019-06-26T16:09:52.198Z,8.68
2019-06-26T16:12:22.670Z,7.33
2019-06-26T16:14:53.099Z,7.70
2019-06-26T16:17:32.135Z,7.67
2019-06-26T16:20:02.975Z,9.05
2019-06-26T16:22:33.648Z,8.00
2019-06-26T16:25:06.320Z,7.47
2019-06-26T16:27:36.752Z,7.65
2019-06-26T16:30:08.171Z,7.67
2019-06-26T16:32:38.702Z,8.25
2019-06-26T16:35:12.376Z,8.35
2019-06-26T16:37:46.322Z,7.83
2019-06-26T16:40:18.280Z,8.18
2019-06-26T16:42:48.963Z,7.50
2019-06-26T16:45:20.283Z,8.20
2019-06-26T16:47:51.224Z,7.62
2019-06-26T16:50:22.064Z,8.05
2019-06-26T16:52:54.574Z,7.70
2019-06-26T16:55:25.437Z,7.15
2019-06-26T16:57:56.185Z,8.25
2019-06-26T17:00:26.861Z,7.58
2019-06-26T17:02:57.415Z,8.43
2019-06-26T17:05:33.163Z,7.95
2019-06-26T17:08:03.630Z,7.62
2019-06-26T17:10:34.145Z,8.35
2019-06-26T17:13:06.095Z,8.48
2019-06-26T17:15:36.564Z,9.28
2019-06-26T17:18:07.585Z,8.53
2019-06-26T17:20:38.168Z,9.28
2019-06-26T17:23:08.722Z,9.48
2019-06-26T17:25:39.483Z,10.00
2019-06-26T17:28:10.648Z,10.10
2019-06-26T17:30:41.158Z,9.70
2019-06-26T17:33:11.809Z,9.73
2019-06-26T17:35:42.484Z,10.05
2019-06-26T17:38:13.157Z,11.05
2019-06-26T17:40:44.505Z,10.25
2019-06-26T17:43:15.061Z,9.60
2019-06-26T17:45:45.528Z,8.98
2019-06-26T17:48:16.302Z,9.75
2019-06-26T17:50:48.451Z,9.80
2019-06-26T17:53:22.092Z,9.98
2019-06-26T17:55:51.436Z,9.63
2019-06-26T17:58:25.292Z,9.78
2019-06-26T18:00:56.025Z,9.68
2019-06-26T18:03:26.559Z,9.60
2019-06-26T18:05:57.330Z,9.45
2019-06-26T18:08:27.864Z,9.48
2019-06-26T18:10:58.436Z,8.75
2019-06-26T18:13:28.919Z,9.93
2019-06-26T18:15:59.441Z,10.10
2019-06-26T18:18:30.083Z,9.88
2019-06-26T18:21:00.712Z,9.20
2019-06-26T18:23:37.561Z,9.08
2019-06-26T18:26:12.933Z,9.05
2019-06-26T18:28:37.425Z,9.85
2019-06-26T18:31:08.078Z,9.20
2019-06-26T18:33:38.605Z,8.83
2019-06-26T18:36:09.350Z,9.33
2019-06-26T18:38:39.987Z,10.38
2019-06-26T18:41:10.545Z,10.98
2019-06-26T18:43:41.202Z,20.75
2019-06-26T18:46:12.993Z,15.63
2019-06-26T18:48:43.733Z,13.28
2019-06-26T18:51:14.402Z,10.20
2019-06-26T18:53:53.513Z,9.80
2019-06-26T18:56:17.934Z,9.95
2019-06-26T18:58:49.619Z,9.73
2019-06-26T19:01:20.651Z,9.23
2019-06-26T19:03:51.489Z,10.35
2019-06-26T19:06:22.329Z,9.00
2019-06-26T19:08:53.013Z,9.63
2019-06-26T19:11:24.438Z,8.90
2019-06-26T19:13:54.990Z,9.95
2019-06-26T19:16:25.586Z,10.03
2019-06-26T19:18:59.229Z,10.00
2019-06-26T19:21:30.691Z,10.43
2019-06-26T19:24:10.216Z,9.60
2019-06-26T19:26:33.941Z,9.53
2019-06-26T19:29:04.539Z,9.30
2019-06-26T19:31:40.853Z,9.28
2019-06-26T19:34:11.334Z,10.05
2019-06-26T19:36:50.187Z,9.40
2019-06-26T19:39:14.087Z,9.45
2019-06-26T19:41:45.190Z,9.75
2019-06-26T19:44:16.208Z,9.30
2019-06-26T19:46:47.879Z,9.15
2019-06-26T19:49:20.770Z,9.08
2019-06-26T19:51:53.983Z,9.58
2019-06-26T19:54:28.520Z,9.78
2019-06-26T19:56:56.831Z,9.58
2019-06-26T19:59:27.406Z,8.98
2019-06-26T20:01:59.418Z,9.90
2019-06-26T20:04:30.153Z,9.75
2019-06-26T20:07:00.645Z,8.78
2019-06-26T20:09:31.277Z,9.03
2019-06-26T20:12:01.817Z,9.68
2019-06-26T20:14:32.811Z,9.50
2019-06-26T20:17:05.306Z,8.53
2019-06-26T20:19:36.172Z,9.23
2019-06-26T20:22:06.752Z,10.38
2019-06-26T20:24:43.938Z,9.70
2019-06-26T20:27:10.952Z,9.45
2019-06-26T20:29:42.585Z,9.63
2019-06-26T20:32:14.487Z,9.58
2019-06-26T20:34:45.366Z,9.50
2019-06-26T20:37:15.870Z,10.13
2019-06-26T20:39:46.346Z,9.48
2019-06-26T20:42:16.914Z,10.25
2019-06-26T20:44:47.366Z,9.40
2019-06-26T20:47:17.881Z,9.75
2019-06-26T20:49:53.005Z,10.32
2019-06-26T20:52:21.196Z,10.08
2019-06-26T20:55:01.468Z,10.53
2019-06-26T20:57:24.593Z,11.25
2019-06-26T20:59:55.132Z,10.93
2019-06-26T21:02:25.968Z,12.10
2019-06-26T21:04:58.079Z,11.48
2019-06-26T21:07:28.678Z,10.65
2019-06-26T21:09:59.396Z,11.90
2019-06-26T21:12:30.225Z,11.08
2019-06-26T21:15:01.040Z,10.20
2019-06-26T21:17:31.618Z,10.53
2019-06-26T21:20:02.197Z,11.33
2019-06-26T21:22:33.785Z,10.85
2019-06-26T21:25:17.578Z,10.70
2019-06-26T21:27:36.463Z,11.30
2019-06-26T21:30:07.421Z,10.35
2019-06-26T21:32:38.002Z,10.93
2019-06-26T21:35:08.734Z,11.73
2019-06-26T21:37:39.174Z,11.90
2019-06-26T21:40:10.632Z,11.43
2019-06-26T21:42:41.284Z,11.35
2019-06-26T21:45:11.973Z,11.78
2019-06-26T21:47:42.490Z,11.83
2019-06-26T21:50:13.132Z,12.20
2019-06-26T21:52:43.709Z,11.43
2019-06-26T21:55:15.798Z,11.35
2019-06-26T21:58:04.591Z,11.35
2019-06-26T22:00:53.293Z,11.43
2019-06-26T22:03:41.809Z,12.05
2019-06-26T22:06:23.291Z,12.18
2019-06-26T22:08:58.122Z,12.50
2019-06-26T22:11:28.978Z,11.80
2019-06-26T22:13:59.485Z,12.90
2019-06-26T22:16:30.043Z,12.37
2019-06-26T22:19:00.874Z,12.45
2019-06-26T22:21:31.645Z,12.07
2019-06-26T22:24:02.114Z,12.80
2019-06-26T22:26:32.612Z,12.63
2019-06-26T22:29:03.130Z,12.00
2019-06-26T22:31:33.721Z,12.15
2019-06-26T22:34:04.227Z,12.88
2019-06-26T22:36:34.655Z,11.60
2019-06-26T22:39:06.375Z,12.35
2019-06-26T22:41:39.658Z,12.75
2019-06-26T22:44:10.137Z,12.95
2019-06-26T22:46:42.441Z,12.60
2019-06-26T22:49:13.031Z,11.97
2019-06-26T22:51:43.517Z,12.33
2019-06-26T22:54:14.048Z,12.68
2019-06-26T22:56:44.582Z,12.20
2019-06-26T22:59:15.029Z,12.00
2019-06-26T23:01:45.505Z,12.70
2019-06-26T23:04:15.950Z,13.25
2019-06-26T23:06:46.469Z,12.33
2019-06-26T23:09:16.972Z,12.40
2019-06-26T23:11:47.467Z,12.70
2019-06-26T23:14:18.058Z,12.65
2019-06-26T23:16:48.639Z,13.58
2019-06-26T23:19:19.128Z,14.35
2019-06-26T23:21:51.533Z,14.43
2019-06-26T23:24:22.026Z,14.05
2019-06-26T23:26:52.589Z,13.28
2019-06-26T23:29:23.131Z,14.23
2019-06-26T23:31:53.608Z,13.48
2019-06-26T23:34:24.024Z,14.60
2019-06-26T23:36:54.514Z,13.37
2019-06-26T23:39:27.859Z,12.70
2019-06-26T23:41:58.393Z,12.75
2019-06-26T23:44:28.839Z,13.05
2019-06-26T23:46:59.319Z,12.58
2019-06-26T23:49:29.863Z,12.60
2019-06-26T23:52:00.437Z,12.58
2019-06-26T23:54:30.985Z,12.93
2019-06-26T23:57:01.757Z,12.33
2019-06-26T23:59:33.231Z,12.45
